ADDS METAR Data INFO
IDs: Format: Raw Decoded Include TAF

Data at: 2032 UTC 22 Feb 2018

KM33 222015Z AUTO 00000KT 10SM OVC006 16/14 A3034 RMK A01
KM33 221955Z AUTO 00000KT 10SM OVC006 15/14 A3034 RMK A01
KM33 221935Z AUTO 01004KT 10SM OVC005 15/14 A3034 RMK A01
KM33 221915Z AUTO 31009G15KT 9SM OVC004 14/14 A3036 RMK A01
KM33 221855Z AUTO 06007KT 5SM BR OVC003 14/14 A3032 RMK A01 P0005
KM33 221835Z AUTO 00000KT 4SM BR BKN004 BKN046 BKN060 14/14 A3038 RMK A01
KM33 221815Z AUTO 13006KT 5SM BR SCT005 BKN010 BKN046 14/14 A3038 RMK A01
KM33 221755Z AUTO 00000KT 4SM BR OVC008 14/13 A3040 RMK A01 P0001
KM33 221735Z AUTO 00000KT 9SM OVC007 14/13 A3041 RMK A01
KM33 221715Z AUTO 32004KT 10SM OVC006 14/13 A3041 RMK A01
KM33 221655Z AUTO 35004KT 10SM OVC005 14/13 A3040 RMK A01
KM33 221635Z AUTO 00000KT 6SM BR OVC005 14/14 A3040 RMK A01
KM33 221615Z AUTO 00000KT 6SM BR OVC006 14/14 A3040 RMK A01
KM33 221555Z AUTO 00000KT 2 1/2SM BR OVC007 15/14 A3039 RMK A01
KM33 221535Z AUTO 32004KT 5SM BR OVC008 15/14 A3037 RMK A01
KM33 221515Z AUTO 32005KT 10SM OVC007 14/14 A3037 RMK A01
KM33 221455Z AUTO 31005KT 9SM OVC006 14/14 A3037 RMK A01
KM33 221435Z AUTO 00000KT 10SM OVC007 14/13 A3036 RMK A01
KM33 221415Z AUTO 31005KT 10SM OVC007 14/13 A3035 RMK A01
KM33 221355Z AUTO 33004KT 10SM OVC007 14/14 A3033 RMK A01 P0002
KM33 221335Z AUTO 31006KT 9SM BKN005 OVC010 14/13 A3032 RMK A01
KM33 221315Z AUTO 15013KT 8SM BKN006 BKN031 OVC065 14/13 A3025 RMK A01
KM33 221255Z AUTO 00000KT 6SM BR SCT006 BKN033 OVC090 12/12 A3029 RMK A01 P0003
KM33 221235Z AUTO 11004KT 7SM FEW003 SCT050 BKN075 12/11 A3029 RMK A01
KM33 221215Z AUTO 13004KT 10SM FEW035 BKN075 OVC100 12/11 A3031 RMK A01
KM33 221155Z AUTO 00000KT 9SM SCT029 BKN037 OVC075 12/11 A3032 RMK A01 P0001
KM33 221135Z AUTO 14003KT 10SM SCT038 BKN050 OVC100 12/11 A3033 RMK A01
KM33 221115Z AUTO 11003KT 9SM FEW032 BKN049 OVC110 11/11 A3032 RMK A01
KM33 221055Z AUTO 00000KT 10SM SCT046 SCT050 OVC110 11/11 A3032 RMK A01 P0001
KM33 221035Z AUTO 00000KT 10SM FEW008 FEW035 OVC110 11/11 A3030 RMK A01
KM33 221015Z AUTO 00000KT 6SM BR FEW003 SCT036 BKN055 12/11 A3030 RMK A01
KM33 220955Z AUTO 31005KT 10SM SCT004 BKN037 OVC110 12/11 A3029 RMK A01 P0016
KM33 220935Z AUTO 26010G24KT 1 3/4SM BR BKN004 OVC010 12/11 A3032 RMK A01
KM33 220915Z AUTO 00000KT 10SM OVC026 12/11 A3024 RMK A01
KM33 220855Z AUTO 00000KT 10SM BKN026 BKN037 OVC050 12/11 A3026 RMK A01
KM33 220835Z AUTO 00000KT 11/11 A3025 RMK A01
KM33 220815Z AUTO 00000KT 10SM FEW010 SCT031 OVC060 11/11 A3026 RMK A01
KM33 220755Z AUTO 05003KT 10SM SCT008 BKN015 OVC060 11/10 A3026 RMK A01
KM33 220735Z AUTO 00000KT 10SM BKN009 OVC013 11/11 A3028 RMK A01
KM33 220715Z AUTO 35004KT 10SM BKN009 OVC014 11/11 A3028 RMK A01
KM33 220655Z AUTO VRB04KT 10SM OVC009 11/10 A3029 RMK A01
KM33 220635Z AUTO 36003KT 10SM BKN009 BKN020 OVC028 11/10 A3028 RMK A01
KM33 220615Z AUTO 03005KT 10SM FEW004 OVC009 11/11 A3028 RMK A01
KM33 220555Z AUTO VRB06KT 5SM BR SCT005 BKN010 OVC065 11/11 A3029 RMK A01 P0011
KM33 220535Z AUTO 05005G13KT 6SM BR FEW004 SCT011 BKN028 11/10 A3028 RMK A01
KM33 220515Z AUTO 03005KT 4SM BR BKN011 BKN026 OVC035 11/10 A3030 RMK A01
KM33 220455Z AUTO 00000KT 5SM BR FEW005 BKN010 OVC013 11/10 A3032 RMK A01 P0014
KM33 220435Z AUTO 00000KT 4SM BR BKN005 OVC009 11/10 A3033 RMK A01
KM33 220415Z AUTO 00000KT 5SM BR OVC005 11/10 A3032 RMK A01
KM33 220355Z AUTO 34005KT 4SM BR OVC006 10/10 A3033 RMK A01 P0005
KM33 220035Z AUTO 34007KT 10SM OVC005 11/10 A3039 RMK A01
KM33 220015Z AUTO 34009KT 10SM OVC006 11/10 A3038 RMK A01
KM33 212355Z AUTO 35006KT 10SM OVC006 11/10 A3038 RMK A01
KM33 212335Z AUTO 34009KT 10SM OVC007 11/10 A3037 RMK A01
KM33 212315Z AUTO 33011KT 10SM OVC007 12/10 A3036 RMK A01
KM33 212255Z AUTO VRB05G11KT 10SM OVC009 12/10 A3036 RMK A01
KM33 212235Z AUTO 34008KT 10SM BKN009 BKN015 OVC035 12/11 A3035 RMK A01
KM33 212215Z AUTO 02010KT 10SM BKN009 BKN029 OVC036 12/11 A3034 RMK A01
KM33 212155Z AUTO 36009KT 10SM SCT009 SCT028 OVC037 12/11 A3033 RMK A01
KM33 212135Z AUTO 36011KT 10SM BKN009 BKN028 OVC039 13/11 A3034 RMK A01
KM33 212115Z AUTO 36011KT 10SM FEW009 FEW032 OVC041 13/12 A3034 RMK A01
KM33 212055Z AUTO 36010KT 10SM FEW009 SCT029 BKN034 13/12 A3033 RMK A01
KM33 212035Z AUTO 35009KT 10SM FEW008 BKN033 OVC039 13/12 A3034 RMK A01
KM33 212015Z AUTO 36009KT 10SM FEW008 BKN034 OVC055 13/12 A3034 RMK A01
KM33 211955Z AUTO 35008KT 5SM BR BKN008 OVC033 13/12 A3035 RMK A01 P0006
KM33 211935Z AUTO VRB05KT 9SM SCT007 SCT014 OVC032 13/12 A3035 RMK A01
KM33 211915Z AUTO 33004G12KT 1 3/4SM BR SCT007 BKN014 OVC032 13/12 A3036 RMK A01
KM33 211855Z AUTO 32009KT 6SM BR SCT009 BKN013 OVC032 14/13 A3035 RMK A01 P0002
KM33 211835Z AUTO 33008KT 2 1/2SM BR SCT009 OVC013 14/13 A3036 RMK A01
KM33 211815Z AUTO 32009KT 9SM OVC014 15/13 A3035 RMK A01
KM33 211755Z AUTO VRB05G16KT 10SM BKN014 OVC034 16/14 A3036 RMK A01
KM33 211735Z AUTO 36013KT 10SM BKN014 OVC033 16/14 A3035 RMK A01
KM33 211715Z AUTO 36008G14KT 10SM OVC033 16/14 A3036 RMK A01
KM33 211655Z AUTO 36012G19KT 10SM OVC031 15/14 A3036 RMK A01
KM33 211635Z AUTO 35012G19KT 10SM OVC030 16/14 A3035 RMK A01
KM33 211615Z AUTO 35013G19KT 10SM OVC027 16/14 A3036 RMK A01
KM33 211555Z AUTO 35017G22KT 4SM BR BKN027 OVC031 15/14 A3035 RMK A01 P0006
KM33 211535Z AUTO 36015G23KT 10SM SCT026 BKN032 OVC041 16/14 A3034 RMK A01
KM33 211515Z AUTO 36017G23KT 7SM BKN024 BKN030 OVC037 16/13 A3034 RMK A01
KM33 211455Z AUTO 36011KT 10SM OVC022 17/13 A3033 RMK A01
KM33 211435Z AUTO 32018G23KT 280V340 10SM OVC023 19/14 A3031 RMK A01
KM33 211415Z AUTO 21007G12KT 10SM OVC025 22/17 A3030 RMK A01
KM33 211355Z AUTO 20008KT 10SM BKN027 OVC033 22/17 A3030 RMK A01
KM33 211335Z AUTO VRB06KT 10SM BKN027 OVC046 22/17 A3029 RMK A01
KM33 211315Z AUTO VRB06KT 10SM SCT028 BKN034 OVC044 21/17 A3028 RMK A01
KM33 211255Z AUTO 20007KT 10SM FEW027 OVC035 21/17 A3027 RMK A01